Time;durP1;ratioP1;P1;durP2;ratioP2;P2;SDS_P1;SDS_P2;PMS_P1;PMS_P2;Temp;Humidity;BMP_temperature;BMP_pressure;BME280_temperature;BME280_humidity;BME280_pressure;Samples;Min_cycle;Max_cycle;Signal;HPM_P1;HPM_P2
2023/09/06 00:02:06;;;;;;;17.67;8.38;;;17.90;99.90;;;;;;4995063;28;20085;-79
2023/09/06 00:04:33;;;;;;;16.90;7.95;;;17.90;99.90;;;;;;4995078;28;20129;-80
2023/09/06 00:06:59;;;;;;;16.27;7.85;;;17.90;99.90;;;;;;4994173;28;20054;-78
2023/09/06 00:09:25;;;;;;;17.50;8.07;;;17.80;99.90;;;;;;4993438;28;20070;-79
2023/09/06 00:11:51;;;;;;;16.33;8.00;;;17.80;99.90;;;;;;4994626;28;20160;-79
2023/09/06 00:14:17;;;;;;;22.13;8.67;;;17.80;99.90;;;;;;4994005;28;20043;-78
2023/09/06 00:16:46;;;;;;;16.90;8.75;;;17.80;99.90;;;;;;4993830;28;20046;-78
2023/09/06 00:19:15;;;;;;;17.60;8.00;;;17.70;99.90;;;;;;4994945;28;20089;-79
2023/09/06 00:21:43;;;;;;;20.10;8.88;;;17.70;99.90;;;;;;4993871;28;20082;-78
2023/09/06 00:24:12;;;;;;;16.65;8.75;;;17.70;99.90;;;;;;4995008;28;20060;-79
2023/09/06 00:26:41;;;;;;;18.83;8.75;;;17.70;99.90;;;;;;4994806;28;20133;-78
2023/09/06 00:29:07;;;;;;;20.33;9.10;;;17.70;99.90;;;;;;4993328;28;20042;-79
2023/09/06 00:31:34;;;;;;;20.23;8.67;;;17.60;99.90;;;;;;4994732;28;20097;-78
2023/09/06 00:34:00;;;;;;;17.70;8.95;;;17.60;99.90;;;;;;4994631;28;20360;-77
2023/09/06 00:36:29;;;;;;;17.97;8.40;;;17.60;99.90;;;;;;4993503;28;20049;-77
2023/09/06 00:38:58;;;;;;;17.80;8.80;;;17.60;99.90;;;;;;4994585;28;20402;-78
2023/09/06 00:41:24;;;;;;;18.77;8.50;;;17.50;99.90;;;;;;4993994;28;20058;-78
2023/09/06 00:43:50;;;;;;;16.48;8.70;;;17.50;99.90;;;;;;4994569;28;20496;-78
2023/09/06 00:46:17;;;;;;;16.07;8.17;;;17.50;99.90;;;;;;4993299;28;20088;-78
2023/09/06 00:48:43;;;;;;;23.13;9.15;;;17.40;99.90;;;;;;4994208;28;20601;-79
2023/09/06 00:51:10;;;;;;;16.92;8.85;;;17.40;99.90;;;;;;4977637;28;20100;-79
2023/09/06 00:53:36;;;;;;;22.77;9.45;;;17.30;99.90;;;;;;4993392;28;20422;-78
2023/09/06 00:56:08;;;;;;;17.55;7.97;;;17.30;99.90;;;;;;4993298;28;20129;-76
2023/09/06 00:58:36;;;;;;;18.90;8.43;;;17.40;99.90;;;;;;4993509;28;20540;-78
2023/09/06 01:01:06;;;;;;;17.52;8.95;;;17.30;99.90;;;;;;4994541;28;20065;-79
2023/09/06 01:03:32;;;;;;;20.42;9.50;;;17.30;99.90;;;;;;4993371;28;20058;-78
2023/09/06 01:06:20;;;;;;;21.42;9.57;;;17.30;99.90;;;;;;4993586;28;20073;-80
2023/09/06 01:08:55;;;;;;;17.95;9.60;;;17.30;99.90;;;;;;4994389;28;20054;-78
2023/09/06 01:11:22;;;;;;;22.65;10.43;;;17.20;99.90;;;;;;4994202;28;20121;-79
2023/09/06 01:13:54;;;;;;;22.10;10.82;;;17.20;99.90;;;;;;4992970;28;20122;-78
2023/09/06 01:16:29;;;;;;;19.23;9.25;;;17.20;99.90;;;;;;4995082;28;20466;-79
2023/09/06 01:18:56;;;;;;;21.30;9.93;;;17.30;99.90;;;;;;4995799;28;20050;-77
2023/09/06 01:21:27;;;;;;;25.25;11.40;;;17.20;99.90;;;;;;4994827;28;20586;-79
2023/09/06 01:23:54;;;;;;;23.95;11.60;;;17.30;99.90;;;;;;4994911;28;20077;-77
2023/09/06 01:26:20;;;;;;;26.60;12.38;;;17.30;99.90;;;;;;4994284;28;20050;-79
2023/09/06 01:28:49;;;;;;;23.77;11.80;;;17.30;99.90;;;;;;4994426;28;20438;-78
2023/09/06 01:31:15;;;;;;;24.75;11.55;;;17.30;99.90;;;;;;4994459;28;20050;-78
2023/09/06 01:33:41;;;;;;;23.88;12.43;;;17.30;99.90;;;;;;4993676;28;20056;-78
2023/09/06 01:36:07;;;;;;;24.90;12.67;;;17.30;99.90;;;;;;4994377;28;20129;-79
2023/09/06 01:38:33;;;;;;;27.17;13.43;;;17.20;99.90;;;;;;4993971;28;20506;-77
2023/09/06 01:41:00;;;;;;;21.97;12.87;;;17.20;99.90;;;;;;4995934;28;20100;-79
2023/09/06 01:43:25;;;;;;;;;;;17.20;99.90;;;;;;4999158;28;20058;-78
2023/09/06 01:45:51;;;;;;;22.67;12.33;;;17.30;99.90;;;;;;4997285;28;19936;-78
2023/09/06 01:48:21;;;;;;;22.67;12.97;;;17.30;99.90;;;;;;4996813;28;20129;-78
2023/09/06 01:50:47;;;;;;;28.20;13.73;;;17.30;99.90;;;;;;4998795;28;20108;-78
2023/09/06 01:53:13;;;;;;;25.58;14.23;;;17.20;99.90;;;;;;4997672;28;20081;-79
2023/09/06 01:55:43;;;;;;;29.33;14.70;;;17.20;99.90;;;;;;4997856;28;20046;-79
2023/09/06 01:58:09;;;;;;;28.45;13.82;;;17.20;99.90;;;;;;4997805;28;20057;-78
2023/09/06 02:00:37;;;;;;;27.55;14.43;;;17.10;99.90;;;;;;4998791;28;20046;-78
2023/09/06 02:03:04;;;;;;;28.15;14.13;;;17.10;99.90;;;;;;4981474;28;20046;-78
2023/09/06 02:05:32;;;;;;;23.95;13.45;;;17.10;99.90;;;;;;4996344;28;20042;-79
2023/09/06 02:07:58;;;;;;;28.92;14.05;;;17.10;99.90;;;;;;4997448;28;20046;-79
2023/09/06 02:10:24;;;;;;;25.92;13.60;;;17.10;99.90;;;;;;4998039;28;20050;-79
2023/09/06 02:12:50;;;;;;;26.85;14.15;;;17.20;99.90;;;;;;4996699;28;20410;-78
2023/09/06 02:15:16;;;;;;;33.60;14.07;;;17.10;99.90;;;;;;4997207;28;20038;-78
2023/09/06 02:17:43;;;;;;;28.53;13.83;;;17.10;99.90;;;;;;4997448;28;20054;-77
2023/09/06 02:20:21;;;;;;;26.48;13.55;;;17.10;99.90;;;;;;4996928;28;20057;-77
2023/09/06 02:22:51;;;;;;;31.27;14.77;;;17.10;99.90;;;;;;4997095;28;20052;-77
2023/09/06 02:25:21;;;;;;;31.42;15.18;;;17.00;99.90;;;;;;4997556;28;20370;-76
2023/09/06 02:27:47;;;;;;;32.35;15.55;;;17.00;99.90;;;;;;4997738;28;20049;-77
2023/09/06 02:30:14;;;;;;;29.27;14.02;;;16.90;99.90;;;;;;4997417;28;20187;-79
2023/09/06 02:32:43;;;;;;;27.40;14.10;;;16.90;99.90;;;;;;4995667;28;20058;-78
2023/09/06 02:35:09;;;;;;;30.88;15.07;;;16.90;99.90;;;;;;4995307;28;20505;-78
2023/09/06 02:37:35;;;;;;;28.73;14.47;;;16.80;99.90;;;;;;4995620;28;20046;-79
2023/09/06 02:40:02;;;;;;;29.83;15.00;;;16.80;99.90;;;;;;4997410;28;20133;-79
2023/09/06 02:42:28;;;;;;;26.65;14.10;;;16.80;99.90;;;;;;4998486;28;20390;-81
2023/09/06 02:44:54;;;;;;;28.77;15.43;;;16.80;99.90;;;;;;4998242;28;20047;-79
2023/09/06 02:47:28;;;;;;;31.93;15.63;;;16.80;99.90;;;;;;4997185;28;20057;-77
2023/09/06 02:49:55;;;;;;;31.75;14.18;;;16.80;99.90;;;;;;4997236;28;20038;-79
2023/09/06 02:52:30;;;;;;;28.60;15.30;;;16.70;99.90;;;;;;4978448;28;20058;-76
2023/09/06 02:55:01;;;;;;;28.73;15.15;;;16.70;99.90;;;;;;4996458;28;20046;-78
2023/09/06 02:57:27;;;;;;;27.90;15.55;;;16.70;99.90;;;;;;4996428;28;20101;-77
2023/09/06 02:59:53;;;;;;;27.40;14.93;;;16.70;99.90;;;;;;4995924;28;20038;-77
2023/09/06 03:02:20;;;;;;;29.98;15.10;;;16.60;99.90;;;;;;4996923;28;20069;-76
2023/09/06 03:04:45;;;;;;;28.92;14.77;;;16.70;99.90;;;;;;4997096;28;20057;-78
2023/09/06 03:07:12;;;;;;;28.30;15.27;;;16.70;99.90;;;;;;4996182;28;20498;-78
2023/09/06 03:09:38;;;;;;;30.70;15.65;;;16.60;99.90;;;;;;4978809;28;20094;-78
2023/09/06 03:12:14;;;;;;;30.83;15.27;;;16.60;99.90;;;;;;4994924;28;20057;-77
2023/09/06 03:14:44;;;;;;;32.85;15.13;;;16.60;99.90;;;;;;4978902;28;20042;-77
2023/09/06 03:17:11;;;;;;;32.10;16.17;;;16.60;99.90;;;;;;4996143;28;20093;-78
2023/09/06 03:19:44;;;;;;;31.48;14.75;;;16.50;99.90;;;;;;4995957;28;20148;-78
2023/09/06 03:22:12;;;;;;;32.65;15.68;;;16.50;99.90;;;;;;4995612;28;20475;-77
2023/09/06 03:24:40;;;;;;;35.42;15.82;;;16.50;99.90;;;;;;4995788;28;20399;-76
2023/09/06 03:27:15;;;;;;;29.45;15.02;;;16.50;99.90;;;;;;4978878;28;20050;-77
2023/09/06 03:29:43;;;;;;;35.30;15.82;;;16.50;99.90;;;;;;4995077;28;20457;-77
2023/09/06 03:32:09;;;;;;;30.95;15.93;;;16.40;99.90;;;;;;4996313;28;20395;-78
2023/09/06 03:34:40;;;;;;;29.60;16.30;;;16.40;99.90;;;;;;4995514;28;20046;-76
2023/09/06 03:37:10;;;;;;;32.40;16.50;;;16.40;99.90;;;;;;4994209;28;20565;-77
2023/09/06 03:39:43;;;;;;;35.22;15.93;;;16.30;99.90;;;;;;4995248;28;20050;-77
2023/09/06 03:42:09;;;;;;;30.85;16.48;;;16.30;99.90;;;;;;4996275;28;20061;-77
2023/09/06 03:44:36;;;;;;;31.45;16.17;;;16.30;99.90;;;;;;4995275;28;20571;-77
2023/09/06 03:47:05;;;;;;;33.90;16.52;;;16.30;99.90;;;;;;4995798;28;20061;-78
2023/09/06 03:49:35;;;;;;;35.78;16.30;;;16.30;99.90;;;;;;4994709;28;20057;-77
2023/09/06 03:52:05;;;;;;;31.58;16.55;;;16.30;99.90;;;;;;4995559;28;20058;-79
2023/09/06 03:54:34;;;;;;;33.15;17.02;;;16.20;99.90;;;;;;4998134;28;20089;-78
2023/09/06 03:57:07;;;;;;;40.85;17.00;;;16.20;99.90;;;;;;5001960;28;20057;-78
2023/09/06 03:59:35;;;;;;;37.50;16.73;;;16.20;99.90;;;;;;4999291;28;20057;-76
2023/09/06 04:02:07;;;;;;;33.58;16.15;;;16.10;99.90;;;;;;4999753;28;20514;-78
2023/09/06 04:04:34;;;;;;;29.27;16.80;;;16.10;99.90;;;;;;4995357;28;20057;-77
2023/09/06 04:07:01;;;;;;;37.58;17.30;;;16.20;99.90;;;;;;4996402;28;20565;-78
2023/09/06 04:09:37;;;;;;;32.13;16.67;;;16.20;99.90;;;;;;4996010;28;20181;-78
2023/09/06 04:12:03;;;;;;;35.50;15.88;;;16.20;99.90;;;;;;4995324;28;20410;-78
2023/09/06 04:14:29;;;;;;;33.35;16.90;;;16.20;99.90;;;;;;4994779;28;20038;-76
2023/09/06 04:16:55;;;;;;;39.53;17.00;;;16.20;99.90;;;;;;4993731;28;20043;-78
2023/09/06 04:19:21;;;;;;;32.20;16.80;;;16.10;99.90;;;;;;4993670;28;20045;-78
2023/09/06 04:21:47;;;;;;;30.00;16.52;;;16.10;99.90;;;;;;4994676;28;20046;-77
2023/09/06 04:24:14;;;;;;;33.08;16.75;;;16.10;99.90;;;;;;4995198;28;20125;-77
2023/09/06 04:26:39;;;;;;;32.63;17.43;;;16.00;99.90;;;;;;4994746;28;20057;-77
2023/09/06 04:29:06;;;;;;;32.35;17.08;;;16.00;99.90;;;;;;4994191;28;20302;-78
2023/09/06 04:31:32;;;;;;;34.15;16.88;;;16.00;99.90;;;;;;4993521;28;20085;-76
2023/09/06 04:34:02;;;;;;;36.20;17.10;;;15.90;99.90;;;;;;4994561;28;20077;-77
2023/09/06 04:36:27;;;;;;;37.58;16.52;;;15.90;99.90;;;;;;4994626;28;20050;-76
2023/09/06 04:38:53;;;;;;;34.25;16.95;;;16.00;99.90;;;;;;4993308;28;20038;-78
2023/09/06 04:41:20;;;;;;;32.40;17.20;;;15.90;99.90;;;;;;4994666;28;20050;-77
2023/09/06 04:43:45;;;;;;;32.53;16.80;;;15.90;99.90;;;;;;4993851;28;20046;-77
2023/09/06 04:46:11;;;;;;;35.75;16.30;;;15.90;99.90;;;;;;4994572;28;20056;-78
2023/09/06 04:48:37;;;;;;;34.07;16.70;;;15.90;99.90;;;;;;4993212;28;20483;-77
2023/09/06 04:51:02;;;;;;;31.10;16.53;;;15.90;99.90;;;;;;4993672;28;20105;-77
2023/09/06 04:53:28;;;;;;;49.38;25.10;;;15.90;99.90;;;;;;4994885;28;20042;-78
2023/09/06 04:55:54;;;;;;;29.45;16.20;;;15.90;99.90;;;;;;4995169;28;20050;-77
2023/09/06 04:58:20;;;;;;;33.53;16.63;;;15.90;99.90;;;;;;5000400;28;20133;-76
2023/09/06 05:00:48;;;;;;;32.20;16.70;;;15.90;99.90;;;;;;5001485;28;20367;-77
2023/09/06 05:03:17;;;;;;;36.75;17.35;;;16.00;99.90;;;;;;5002440;28;20046;-77
2023/09/06 05:05:47;;;;;;;37.22;17.48;;;16.00;99.90;;;;;;5002937;28;20070;-77
2023/09/06 05:08:13;;;;;;;35.17;17.80;;;16.00;99.90;;;;;;4985095;28;20037;-77
2023/09/06 05:10:39;;;;;;;37.17;18.05;;;16.00;99.90;;;;;;4999320;28;20054;-77
2023/09/06 05:13:07;;;;;;;38.13;18.33;;;16.00;99.90;;;;;;4997891;28;20050;-77
2023/09/06 05:15:37;;;;;;;36.55;18.13;;;16.00;99.90;;;;;;4980773;28;20050;-78
2023/09/06 05:18:10;;;;;;;38.47;18.80;;;16.00;99.90;;;;;;4998878;28;20165;-76
2023/09/06 05:20:40;;;;;;;42.42;19.00;;;16.00;99.90;;;;;;4981431;28;20050;-77
2023/09/06 05:23:08;;;;;;;39.65;19.05;;;16.00;99.90;;;;;;4998105;28;20053;-76
2023/09/06 05:25:34;;;;;;;37.22;19.45;;;16.00;99.90;;;;;;4997193;28;20063;-77
2023/09/06 05:28:01;;;;;;;38.88;19.05;;;16.10;99.90;;;;;;4996980;28;20125;-77
2023/09/06 05:30:27;;;;;;;41.22;19.85;;;16.10;99.90;;;;;;4997184;28;20391;-76
2023/09/06 05:32:55;;;;;;;40.27;18.60;;;16.20;99.90;;;;;;4998735;28;20407;-77
2023/09/06 05:35:22;;;;;;;33.97;18.20;;;16.20;99.90;;;;;;4980349;28;20047;-77
2023/09/06 05:37:48;;;;;;;34.75;17.65;;;16.30;99.90;;;;;;4998621;28;20410;-78
2023/09/06 05:40:15;;;;;;;38.97;18.80;;;16.30;99.90;;;;;;4997855;28;20050;-78
2023/09/06 05:42:41;;;;;;;35.38;17.58;;;16.30;99.90;;;;;;4997620;28;20094;-76
2023/09/06 05:45:10;;;;;;;37.63;17.88;;;16.40;99.90;;;;;;4996882;28;20042;-78
2023/09/06 05:47:37;;;;;;;35.42;18.23;;;16.40;99.90;;;;;;4998368;28;20465;-77
2023/09/06 05:50:04;;;;;;;37.13;18.08;;;16.50;99.90;;;;;;4998244;28;20140;-79
2023/09/06 05:52:30;;;;;;;;;;;16.60;99.90;;;;;;4998633;28;20072;-77
2023/09/06 05:54:56;;;;;;;33.27;16.63;;;16.60;99.90;;;;;;4996574;28;20288;-77
2023/09/06 05:57:22;;;;;;;33.65;17.05;;;16.70;99.90;;;;;;4998354;28;20105;-79
2023/09/06 05:59:47;;;;;;;37.17;17.23;;;16.70;99.90;;;;;;4997759;28;20046;-78
2023/09/06 06:02:14;;;;;;;37.60;16.60;;;16.80;99.90;;;;;;4998488;28;20070;-77
2023/09/06 06:04:41;;;;;;;34.60;17.30;;;16.90;99.90;;;;;;4980435;28;20077;-77
2023/09/06 06:07:07;;;;;;;34.72;17.25;;;16.90;99.90;;;;;;4996118;28;20097;-78
2023/09/06 06:09:33;;;;;;;36.00;16.97;;;16.90;99.90;;;;;;4995798;28;20096;-77
2023/09/06 06:11:59;;;;;;;36.65;16.45;;;16.90;99.90;;;;;;4997316;28;20054;-77
2023/09/06 06:14:28;;;;;;;38.47;16.87;;;17.00;99.90;;;;;;4979771;28;20124;-77
2023/09/06 06:16:53;;;;;;;36.45;17.13;;;17.00;99.90;;;;;;4980660;28;20050;-77
2023/09/06 06:19:19;;;;;;;32.23;16.83;;;17.10;99.90;;;;;;4996182;28;20113;-78
2023/09/06 06:21:45;;;;;;;31.07;15.57;;;17.10;99.90;;;;;;4997123;28;20390;-76
2023/09/06 06:24:12;;;;;;;32.28;16.02;;;17.10;99.90;;;;;;4996209;28;20058;-79
2023/09/06 06:26:38;;;;;;;31.20;15.10;;;17.20;99.90;;;;;;4996972;28;20047;-77
2023/09/06 06:29:04;;;;;;;29.10;14.67;;;17.30;99.90;;;;;;4995523;28;20042;-77
2023/09/06 06:31:30;;;;;;;33.30;15.37;;;17.30;99.90;;;;;;4997529;28;20077;-77
2023/09/06 06:33:56;;;;;;;27.70;14.27;;;17.40;99.90;;;;;;4995819;28;20042;-78
2023/09/06 06:36:22;;;;;;;31.85;14.20;;;17.50;99.90;;;;;;4996965;28;20046;-78
2023/09/06 06:38:48;;;;;;;31.13;13.75;;;17.50;99.90;;;;;;4998124;28;20129;-77
2023/09/06 06:41:22;;;;;;;35.07;14.37;;;17.60;99.90;;;;;;4995972;28;20090;-78
2023/09/06 06:43:52;;;;;;;28.05;13.77;;;17.70;99.90;;;;;;4997137;28;20045;-76
2023/09/06 06:46:33;;;;;;;31.77;13.98;;;17.80;99.90;;;;;;4997624;28;20050;-77
2023/09/06 06:48:59;;;;;;;32.30;14.10;;;17.90;99.90;;;;;;4997703;28;20078;-77
2023/09/06 06:51:36;;;;;;;30.00;14.50;;;18.00;99.90;;;;;;4997503;28;20061;-77
2023/09/06 06:54:06;;;;;;;34.83;13.85;;;18.00;99.90;;;;;;4997190;28;20104;-77
2023/09/06 06:56:32;;;;;;;30.17;13.63;;;18.10;99.90;;;;;;4999021;28;20086;-78
2023/09/06 06:58:58;;;;;;;35.30;16.07;;;18.30;99.90;;;;;;4997796;28;20050;-78
2023/09/06 07:01:24;;;;;;;29.30;14.00;;;18.30;99.90;;;;;;5000498;28;20116;-78
2023/09/06 07:03:51;;;;;;;25.60;11.52;;;18.40;99.90;;;;;;4980686;28;20046;-77
2023/09/06 07:06:16;;;;;;;29.70;12.70;;;18.50;99.90;;;;;;4995747;28;20053;-78
2023/09/06 07:08:42;;;;;;;31.03;12.87;;;18.70;99.90;;;;;;4995084;28;20058;-75
2023/09/06 07:11:08;;;;;;;25.90;11.33;;;18.80;99.90;;;;;;4996763;28;20138;-77
2023/09/06 07:13:34;;;;;;;30.73;12.37;;;19.00;99.90;;;;;;4980073;28;20058;-76
2023/09/06 07:16:00;;;;;;;25.05;11.73;;;19.10;99.90;;;;;;4996989;28;20046;-77
2023/09/06 07:18:26;;;;;;;25.77;11.65;;;19.20;99.90;;;;;;4979184;28;20471;-80
2023/09/06 07:20:52;;;;;;;26.20;10.43;;;19.40;99.90;;;;;;4995095;28;20046;-78
2023/09/06 07:23:18;;;;;;;22.57;11.00;;;19.50;99.90;;;;;;4979144;28;20050;-77
2023/09/06 07:25:46;;;;;;;24.97;10.83;;;19.70;99.90;;;;;;4995102;28;20148;-76
2023/09/06 07:28:15;;;;;;;24.55;10.55;;;19.80;99.90;;;;;;4978379;28;20491;-77
2023/09/06 07:30:44;;;;;;;23.58;11.55;;;19.90;99.90;;;;;;4994978;28;20069;-75
2023/09/06 07:33:10;;;;;;;26.08;11.65;;;20.10;99.90;;;;;;4995971;28;20054;-75
2023/09/06 07:35:36;;;;;;;25.13;10.80;;;20.20;99.90;;;;;;4996584;28;20061;-77
2023/09/06 07:38:01;;;;;;;25.73;10.87;;;20.40;99.90;;;;;;4995253;28;20125;-78
2023/09/06 07:40:27;;;;;;;24.77;10.80;;;20.40;99.90;;;;;;4994665;28;20055;-77
2023/09/06 07:42:53;;;;;;;29.37;11.00;;;20.50;99.90;;;;;;4996301;28;20050;-78
2023/09/06 07:45:19;;;;;;;28.93;11.30;;;20.60;99.90;;;;;;4995710;28;20050;-78
2023/09/06 07:47:44;;;;;;;24.47;10.73;;;20.70;99.90;;;;;;4997001;28;20050;-79
2023/09/06 07:50:10;;;;;;;25.10;10.20;;;20.80;99.90;;;;;;4978946;28;20057;-78
2023/09/06 07:52:37;;;;;;;23.97;11.13;;;20.90;99.90;;;;;;4996334;28;20112;-78
2023/09/06 07:55:04;;;;;;;25.33;10.20;;;21.00;99.90;;;;;;4995322;28;20043;-78
2023/09/06 07:57:30;;;;;;;25.92;10.73;;;21.00;99.90;;;;;;4994852;28;20046;-77
2023/09/06 07:59:55;;;;;;;22.37;11.30;;;21.10;99.90;;;;;;4996347;28;20054;-81
2023/09/06 08:02:22;;;;;;;25.17;10.37;;;21.20;99.90;;;;;;4995195;28;20046;-81
2023/09/06 08:04:48;;;;;;;25.75;10.50;;;21.30;99.90;;;;;;4995599;28;20379;-81
2023/09/06 08:07:14;;;;;;;;;;;21.30;99.90;;;;;;4995706;28;20201;-77
2023/09/06 08:09:40;;;;;;;20.63;9.37;;;21.40;99.90;;;;;;4993986;28;19972;-76
2023/09/06 08:12:06;;;;;;;26.60;9.17;;;21.50;99.90;;;;;;4995747;28;20049;-76
2023/09/06 08:14:33;;;;;;;24.02;9.82;;;21.60;99.90;;;;;;4996560;28;20082;-80
2023/09/06 08:16:58;;;;;;;21.50;8.98;;;21.70;99.90;;;;;;4995895;28;20061;-78
2023/09/06 08:19:24;;;;;;;23.87;9.43;;;21.80;99.90;;;;;;4995544;28;20043;-77
2023/09/06 08:21:50;;;;;;;26.80;9.77;;;21.90;99.90;;;;;;4994845;28;20042;-77
2023/09/06 08:24:17;;;;;;;26.07;9.13;;;21.90;99.90;;;;;;4993918;28;20051;-78
2023/09/06 08:26:43;;;;;;;20.10;8.95;;;22.00;99.90;;;;;;4995491;28;20142;-79
2023/09/06 08:29:09;;;;;;;20.80;9.00;;;22.10;99.90;;;;;;4995589;28;20050;-79
2023/09/06 08:31:35;;;;;;;19.95;8.50;;;22.10;99.90;;;;;;4994838;28;20056;-80
2023/09/06 08:34:02;;;;;;;19.30;8.48;;;22.20;99.90;;;;;;4994763;28;20042;-82
2023/09/06 08:36:27;;;;;;;;;;;22.30;99.90;;;;;;4994393;28;20054;-82
2023/09/06 08:38:53;;;;;;;25.95;8.02;;;22.50;99.90;;;;;;4978678;28;19922;-81
2023/09/06 08:41:20;;;;;;;25.37;8.33;;;22.60;99.90;;;;;;4995499;28;20042;-79
2023/09/06 08:43:46;;;;;;;17.83;7.28;;;22.70;99.90;;;;;;4994702;28;20046;-79
2023/09/06 08:46:21;;;;;;;20.15;7.50;;;22.70;99.90;;;;;;4994072;28;20061;-81
2023/09/06 08:48:47;;;;;;;18.60;7.05;;;22.80;99.90;;;;;;4979407;28;20049;-77
2023/09/06 08:51:15;;;;;;;21.90;7.15;;;22.90;99.90;;;;;;4994416;28;20047;-84
2023/09/06 08:53:43;;;;;;;16.95;7.07;;;22.90;99.90;;;;;;4978708;28;20038;-81
2023/09/06 08:56:09;;;;;;;17.25;6.55;;;23.00;99.90;;;;;;4995615;28;20042;-82
2023/09/06 08:58:35;;;;;;;19.52;7.85;;;23.00;99.90;;;;;;4994846;28;20136;-80
2023/09/06 09:01:04;;;;;;;17.30;7.38;;;23.10;99.90;;;;;;4994002;28;20105;-81
2023/09/06 09:03:31;;;;;;;19.30;6.95;;;23.20;99.90;;;;;;4977589;28;20482;-80
2023/09/06 09:06:00;;;;;;;;;;;23.20;99.90;;;;;;4995474;28;20046;-82
2023/09/06 09:08:30;;;;;;;20.40;7.78;;;23.30;99.90;;;;;;4994000;28;19922;-81
2023/09/06 09:11:13;;;;;;;20.10;7.35;;;23.40;99.90;;;;;;4994234;28;20050;-82
2023/09/06 09:13:39;;;;;;;21.25;7.15;;;23.50;99.90;;;;;;4994881;28;20471;-83
2023/09/06 09:16:13;;;;;;;22.35;7.88;;;23.50;99.90;;;;;;4994181;28;20105;-82
2023/09/06 09:18:39;;;;;;;24.40;8.02;;;23.50;99.90;;;;;;4995073;28;20382;-79
2023/09/06 09:21:11;;;;;;;26.45;7.97;;;23.60;99.90;;;;;;4994443;28;20051;-80
2023/09/06 09:23:52;;;;;;;17.33;7.45;;;23.70;99.90;;;;;;4994533;28;20441;-80
2023/09/06 09:26:21;;;;;;;20.35;8.43;;;23.70;99.90;;;;;;4994163;28;20076;-81
2023/09/06 09:28:48;;;;;;;20.38;7.85;;;23.80;99.90;;;;;;4993577;28;20046;-82
2023/09/06 09:31:15;;;;;;;18.73;7.60;;;23.80;99.90;;;;;;4993995;28;20461;-82
2023/09/06 09:33:44;;;;;;;19.80;8.27;;;23.90;99.90;;;;;;4976916;28;20120;-81
2023/09/06 09:36:14;;;;;;;20.88;7.65;;;24.00;99.90;;;;;;4993934;28;20043;-80
2023/09/06 09:38:48;;;;;;;20.23;8.20;;;24.10;99.90;;;;;;4993052;28;20514;-82
2023/09/06 09:41:14;;;;;;;21.55;8.43;;;24.10;99.90;;;;;;4993301;28;20042;-82
2023/09/06 09:43:40;;;;;;;20.77;8.37;;;24.20;99.90;;;;;;4994331;28;20046;-84
2023/09/06 09:46:07;;;;;;;22.65;8.77;;;24.20;99.90;;;;;;4992507;28;20422;-79
2023/09/06 09:48:33;;;;;;;19.02;8.52;;;24.30;99.90;;;;;;4994409;28;20046;-81
2023/09/06 09:51:06;;;;;;;37.40;9.30;;;24.40;99.90;;;;;;4995856;28;20120;-78
2023/09/06 09:53:33;;;;;;;77.97;12.50;;;24.40;99.90;;;;;;4994286;28;20447;-80
2023/09/06 09:56:04;;;;;;;;;;;24.60;99.90;;;;;;4994490;28;20108;-79
2023/09/06 09:58:34;;;;;;;28.85;9.57;;;24.60;99.90;;;;;;4977697;28;19929;-82
2023/09/06 10:01:01;;;;;;;17.10;8.02;;;24.60;99.90;;;;;;4994195;28;20053;-80
2023/09/06 10:03:27;;;;;;;23.52;9.20;;;24.60;99.90;;;;;;4998395;28;20047;-78
2023/09/06 10:05:53;;;;;;;;;;;24.70;99.90;;;;;;4985119;28;20054;-80
2023/09/06 10:08:19;;;;;;;;;;;24.70;99.90;;;;;;5001060;28;19921;-80
2023/09/06 10:10:45;;;;;;;21.65;8.25;;;24.70;99.90;;;;;;4998963;28;19944;-76
2023/09/06 10:13:14;;;;;;;42.83;9.55;;;24.80;99.90;;;;;;4996647;28;20050;-80
2023/09/06 10:15:41;;;;;;;27.20;9.60;;;24.90;99.90;;;;;;4997008;28;20057;-78
2023/09/06 10:18:07;;;;;;;18.10;8.35;;;25.00;99.90;;;;;;4999227;28;20038;-81
2023/09/06 10:20:34;;;;;;;16.63;7.90;;;25.00;99.90;;;;;;5002062;28;20053;-80
2023/09/06 10:23:01;;;;;;;22.55;8.38;;;25.00;99.90;;;;;;5001821;28;20042;-81
2023/09/06 10:25:27;;;;;;;26.80;9.45;;;25.10;99.90;;;;;;5002652;28;20046;-78
2023/09/06 10:27:54;;;;;;;20.05;9.10;;;25.20;99.90;;;;;;4999535;28;20050;-79
2023/09/06 10:30:34;;;;;;;35.25;10.23;;;25.30;99.90;;;;;;4998142;28;20133;-78
2023/09/06 10:33:03;;;;;;;28.52;10.13;;;25.40;99.90;;;;;;4997443;28;20399;-79
2023/09/06 10:35:32;;;;;;;20.23;8.20;;;25.40;99.90;;;;;;4964984;28;20383;-80
2023/09/06 10:38:10;;;;;;;26.40;8.27;;;25.40;99.90;;;;;;4997866;28;20042;-77
2023/09/06 10:40:51;;;;;;;19.25;7.60;;;25.60;99.90;;;;;;4980504;28;20105;-79
2023/09/06 10:43:18;;;;;;;25.92;8.10;;;25.60;99.90;;;;;;4996928;28;20093;-80
2023/09/06 10:46:13;;;;;;;19.40;7.40;;;25.60;99.90;;;;;;4996712;28;20056;-77
2023/09/06 10:48:39;;;;;;;23.50;7.78;;;25.80;99.90;;;;;;4982513;28;20098;-82
2023/09/06 10:51:13;;;;;;;14.50;7.10;;;25.80;99.90;;;;;;4996008;28;20052;-79
2023/09/06 10:53:40;;;;;;;21.38;7.47;;;25.80;99.90;;;;;;4996780;28;20043;-79
2023/09/06 10:56:07;;;;;;;17.40;7.30;;;25.90;99.90;;;;;;4997191;28;20043;-81
2023/09/06 10:58:37;;;;;;;20.30;7.50;;;25.90;99.90;;;;;;4979090;28;20085;-81
2023/09/06 11:01:18;;;;;;;25.08;7.65;;;25.90;99.90;;;;;;4996994;28;20427;-81
2023/09/06 11:03:50;;;;;;;17.13;7.20;;;26.00;99.90;;;;;;4995159;28;20062;-81
2023/09/06 11:06:16;;;;;;;20.83;7.50;;;26.10;99.90;;;;;;4995561;28;20482;-77
2023/09/06 11:08:42;;;;;;;18.48;7.15;;;26.10;99.90;;;;;;4996841;28;20148;-81
2023/09/06 11:11:09;;;;;;;20.15;6.80;;;26.20;99.90;;;;;;4996594;28;20046;-80
2023/09/06 11:13:37;;;;;;;17.63;7.40;;;26.20;99.90;;;;;;4995469;28;20042;-83
2023/09/06 11:16:04;;;;;;;18.38;7.03;;;26.30;99.90;;;;;;4980029;28;20085;-81
2023/09/06 11:18:32;;;;;;;;;;;26.30;99.90;;;;;;4996479;28;20047;-79
2023/09/06 11:21:01;;;;;;;17.27;7.07;;;26.40;99.90;;;;;;5004561;28;20072;-81
2023/09/06 11:23:27;;;;;;;17.08;7.00;;;26.50;99.90;;;;;;5008667;28;20053;-77
2023/09/06 11:26:00;;;;;;;19.80;6.95;;;26.60;99.90;;;;;;5004367;28;20050;-83
2023/09/06 11:28:29;;;;;;;19.80;6.65;;;26.60;99.90;;;;;;5003241;28;20050;-81
2023/09/06 11:30:56;;;;;;;20.30;6.53;;;26.60;99.90;;;;;;5004763;28;20042;-80
2023/09/06 11:33:31;;;;;;;13.63;5.72;;;26.70;99.90;;;;;;5005129;28;20058;-82
2023/09/06 11:35:59;;;;;;;13.60;6.25;;;26.80;99.90;;;;;;5003403;28;20043;-80
2023/09/06 11:38:33;;;;;;;23.55;6.68;;;26.80;99.90;;;;;;5004043;28;20054;-79
2023/09/06 11:41:08;;;;;;;15.02;6.60;;;26.90;99.90;;;;;;4998427;28;20047;-83
2023/09/06 11:43:37;;;;;;;14.80;6.50;;;26.90;99.90;;;;;;4998508;28;20387;-83
2023/09/06 11:46:06;;;;;;;14.82;6.47;;;26.90;99.90;;;;;;4998794;28;20386;-79
2023/09/06 11:48:34;;;;;;;13.50;5.70;;;27.00;99.90;;;;;;4996429;28;20046;-78
2023/09/06 11:51:19;;;;;;;15.25;5.07;;;27.10;99.90;;;;;;4997729;28;20058;-80
2023/09/06 11:53:53;;;;;;;15.73;5.97;;;;;;;;;;4996841;28;20054;-84
2023/09/06 11:56:25;;;;;;;14.25;6.05;;;;;;;;;;4996213;28;20050;-83
2023/09/06 11:58:54;;;;;;;14.77;5.28;;;;;;;;;;4995771;28;20463;-79
2023/09/06 12:01:20;;;;;;;13.48;5.53;;;;;;;;;;4995707;28;20574;-83
2023/09/06 12:03:47;;;;;;;9.80;4.82;;;;;;;;;;4995415;28;20410;-82
2023/09/06 12:06:13;;;;;;;12.27;4.90;;;;;;;;;;4995975;28;20073;-80
2023/09/06 12:08:41;;;;;;;13.90;5.22;;;;;;;;;;4996338;28;20054;-80
2023/09/06 12:11:11;;;;;;;10.13;4.95;;;;;;;;;;4995452;28;20054;-82
2023/09/06 12:13:38;;;;;;;11.45;5.13;;;;;;;;;;4995341;28;20112;-80
2023/09/06 12:16:06;;;;;;;11.88;5.13;;;;;;;;;;4996289;28;20047;-83
2023/09/06 12:18:32;;;;;;;14.43;4.93;;;;;;;;;;4996872;28;20050;-76
2023/09/06 12:20:58;;;;;;;;;;;;;;;;;;4996664;28;20142;-81
2023/09/06 12:23:32;;;;;;;14.55;5.28;;;;;;;;;;4996190;28;19944;-80
2023/09/06 12:25:59;;;;;;;10.90;4.90;;;;;;;;;;4995441;28;20109;-79
2023/09/06 12:28:26;;;;;;;12.50;4.95;;;;;;;;;;4995992;28;20399;-81
2023/09/06 12:30:53;;;;;;;14.00;4.90;;;;;;;;;;4995913;28;20054;-82
2023/09/06 12:33:22;;;;;;;12.43;4.70;;;;;;;;;;4994936;28;20466;-83
2023/09/06 12:35:50;;;;;;;12.57;5.55;;;;;;;;;;4979433;28;20093;-82
2023/09/06 12:38:16;;;;;;;16.45;4.80;;;;;;;;;;4997869;28;20050;-81
2023/09/06 12:40:42;;;;;;;11.32;5.20;;;;;;;;;;4979729;28;20064;-82
2023/09/06 12:43:08;;;;;;;;;;;;;;;;;;4995402;28;20065;-81
2023/09/06 12:45:34;;;;;;;;;;;;;;;;;;4995620;28;20008;-81
2023/09/06 12:48:00;;;;;;;;;;;;;;;;;;4996589;28;19929;-81